Soeroeyfisk — LJQQ — position and weather

sailwx.info

Track history (hours):
 
Tides and Currents Weather Stations Pressure Air Temp Water Temp Dewpoint Dewpoint Depression Visibility Wind Speed Wind Dir Waves Ship Positions

Soeroeyfisk

Last reported at 2018-Feb-16 22:24 UTC. Time now 2018-Feb-19 00:18 UTC.
Position N 70°05' E 017°06'.

Length 27 m.

Type: Fishing. MMSI: 259641000.

Date/timePositionNaut miles runAvg speedWind from/ knotsBaromVisibWave heightAir tempDewpointWater temp
2018-Feb-16 22:24N 70°05' E 017°06'3 7.5
2018-Feb-16 22:01N 70°07' E 017°11'4 7.5
2018-Feb-16 21:31N 70°11' E 017°13'4 8.6
2018-Feb-16 21:01N 70°15' E 017°09'4 8.6
2018-Feb-16 20:31N 70°19' E 017°07'4 7.7
2018-Feb-16 20:01N 70°23' E 017°06'4 8.5
2018-Feb-16 19:30N 70°27' E 017°03'4 8.1
2018-Feb-16 19:00N 70°31' E 017°01'4 8.4
2018-Feb-16 18:31N 70°35' E 016°59'4 8.6
2018-Feb-16 18:00N 70°40' E 016°57'4 8.9
2018-Feb-16 17:31N 70°44' E 016°56'4 9.0
2018-Feb-16 17:01N 70°48' E 016°54'20 1.4
2018-Feb-16 02:44N 71°08' E 017°04'23 4.9
2018-Feb-15 22:03N 70°47' E 017°28'2 8.9
2018-Feb-15 21:47N 70°44' E 017°29'3 8.8
2018-Feb-15 21:29N 70°42' E 017°31'4 9.2
2018-Feb-15 21:01N 70°38' E 017°35'5 9.2
2018-Feb-15 20:31N 70°33' E 017°40'4 9.0
2018-Feb-15 20:00N 70°29' E 017°45'4 8.7
2018-Feb-15 19:30N 70°25' E 017°49'4 8.4
2018-Feb-15 19:01N 70°21' E 017°52'4 8.8
2018-Feb-15 18:30N 70°17' E 017°56'4 8.9
2018-Feb-15 18:01N 70°13' E 017°60'5 8.9
2018-Feb-15 17:30N 70°08' E 018°04'5 8.7
2018-Feb-15 16:57N 70°04' E 018°08'113 2.3
2018-Feb-13 16:25N 70°40' E 023°24'  
Track history (hours):
 
Tides and Currents Weather Stations Pressure Air Temp Water Temp Dewpoint Dewpoint Depression Visibility Wind Speed Wind Dir Waves Ship Positions

Soeroeyfisk

Last reported at 2018-Feb-16 22:24 UTC. Time now 2018-Feb-19 00:18 UTC.
Position N 70°05' E 017°06'.

Length 27 m.

Type: Fishing. MMSI: 259641000.

Date/timePositionNaut miles runAvg speedWind from/ knotsBaromVisibWave heightAir tempDewpointWater temp
2018-Feb-16 22:24N 70°05' E 017°06'3 7.5
2018-Feb-16 22:01N 70°07' E 017°11'4 7.5
2018-Feb-16 21:31N 70°11' E 017°13'4 8.6
2018-Feb-16 21:01N 70°15' E 017°09'4 8.6
2018-Feb-16 20:31N 70°19' E 017°07'4 7.7
2018-Feb-16 20:01N 70°23' E 017°06'4 8.5
2018-Feb-16 19:30N 70°27' E 017°03'4 8.1
2018-Feb-16 19:00N 70°31' E 017°01'4 8.4
2018-Feb-16 18:31N 70°35' E 016°59'4 8.6
2018-Feb-16 18:00N 70°40' E 016°57'4 8.9
2018-Feb-16 17:31N 70°44' E 016°56'4 9.0
2018-Feb-16 17:01N 70°48' E 016°54'20 1.4
2018-Feb-16 02:44N 71°08' E 017°04'23 4.9
2018-Feb-15 22:03N 70°47' E 017°28'2 8.9
2018-Feb-15 21:47N 70°44' E 017°29'3 8.8
2018-Feb-15 21:29N 70°42' E 017°31'4 9.2
2018-Feb-15 21:01N 70°38' E 017°35'5 9.2
2018-Feb-15 20:31N 70°33' E 017°40'4 9.0
2018-Feb-15 20:00N 70°29' E 017°45'4 8.7
2018-Feb-15 19:30N 70°25' E 017°49'4 8.4
2018-Feb-15 19:01N 70°21' E 017°52'4 8.8
2018-Feb-15 18:30N 70°17' E 017°56'4 8.9
2018-Feb-15 18:01N 70°13' E 017°60'5 8.9
2018-Feb-15 17:30N 70°08' E 018°04'5 8.7
2018-Feb-15 16:57N 70°04' E 018°08'113 2.3
2018-Feb-13 16:25N 70°40' E 023°24'  

Dump ship's entire track history